Time;durP1;ratioP1;P1;durP2;ratioP2;P2;SDS_P1;SDS_P2;PMS_P1;PMS_P2;Temp;Humidity;BMP_temperature;BMP_pressure;BME280_temperature;BME280_humidity;BME280_pressure;Samples;Min_cycle;Max_cycle;Signal;HPM_P1;HPM_P2
2020/12/24 00:01:26;;;;;;;15.90;4.55;;;9.50;83.20;;;;;;5069945;28;20192;-73
2020/12/24 00:03:52;;;;;;;15.98;3.65;;;9.50;83.30;;;;;;5061144;28;20028;-72
2020/12/24 00:06:19;;;;;;;19.40;4.22;;;9.40;83.80;;;;;;5063309;28;20029;-71
2020/12/24 00:08:44;;;;;;;17.08;3.97;;;9.40;83.80;;;;;;5066307;28;20376;-73
2020/12/24 00:11:10;;;;;;;16.23;3.95;;;9.30;84.30;;;;;;5062432;28;20399;-72
2020/12/24 00:13:36;;;;;;;12.40;3.88;;;9.20;84.60;;;;;;5060040;28;20521;-73
2020/12/24 00:16:03;;;;;;;19.50;4.03;;;9.20;84.80;;;;;;5063198;28;20037;-73
2020/12/24 00:18:28;;;;;;;16.95;4.00;;;9.10;85.00;;;;;;5064455;28;20498;-73
2020/12/24 00:20:55;;;;;;;17.73;3.53;;;9.20;84.90;;;;;;5067908;28;20496;-73
2020/12/24 00:23:21;;;;;;;15.38;3.90;;;9.10;84.90;;;;;;5062287;28;20420;-72
2020/12/24 00:25:46;;;;;;;13.65;3.53;;;9.10;85.00;;;;;;5063568;28;20189;-72
2020/12/24 00:28:12;;;;;;;18.52;4.15;;;9.20;85.00;;;;;;5061818;28;20390;-73
2020/12/24 00:30:41;;;;;;;14.35;3.85;;;9.20;84.90;;;;;;5066266;28;20422;-72
2020/12/24 00:33:11;;;;;;;17.70;4.55;;;9.20;85.20;;;;;;5060592;28;20048;-72
2020/12/24 00:35:39;;;;;;;19.77;3.88;;;9.10;85.40;;;;;;5059557;28;20199;-72
2020/12/24 00:38:05;;;;;;;14.60;3.90;;;9.10;85.90;;;;;;5064028;28;20044;-74
2020/12/24 00:40:30;;;;;;;15.80;3.50;;;9.10;86.10;;;;;;5064610;28;20029;-72
2020/12/24 00:42:56;;;;;;;20.15;4.22;;;9.10;86.30;;;;;;5064382;28;20423;-72
2020/12/24 00:45:22;;;;;;;17.38;3.28;;;9.10;86.30;;;;;;5066795;28;20549;-72
2020/12/24 00:47:48;;;;;;;16.75;3.67;;;9.00;86.60;;;;;;5064259;28;20041;-72
2020/12/24 00:50:14;;;;;;;18.90;3.85;;;9.10;86.90;;;;;;5056665;28;20028;-72
2020/12/24 00:52:39;;;;;;;15.32;3.30;;;9.10;86.90;;;;;;5063451;28;20024;-71
2020/12/24 00:55:05;;;;;;;16.90;3.60;;;9.00;87.20;;;;;;5065326;28;20117;-73
2020/12/24 00:57:31;;;;;;;15.15;4.55;;;9.00;87.20;;;;;;5065399;28;20036;-71
2020/12/24 00:59:56;;;;;;;16.92;3.63;;;8.90;87.80;;;;;;5063263;28;20397;-73
2020/12/24 01:02:22;;;;;;;15.50;4.05;;;8.90;87.80;;;;;;5056926;28;20049;-72
2020/12/24 01:04:47;;;;;;;17.67;3.63;;;8.80;87.90;;;;;;5064191;28;20031;-72
2020/12/24 01:07:13;;;;;;;15.23;3.40;;;8.90;87.90;;;;;;5062406;28;20045;-71
2020/12/24 01:09:39;;;;;;;14.98;3.53;;;8.80;87.80;;;;;;5060669;28;20028;-72
2020/12/24 01:12:05;;;;;;;13.32;3.80;;;8.80;88.20;;;;;;5056594;28;20144;-75
2020/12/24 01:14:30;;;;;;;14.18;3.75;;;8.90;88.10;;;;;;5057759;28;20483;-72
2020/12/24 01:16:56;;;;;;;14.40;3.78;;;8.80;88.30;;;;;;5064076;28;20036;-76
2020/12/24 01:19:21;;;;;;;16.33;3.95;;;8.80;88.10;;;;;;5066576;28;20078;-71
2020/12/24 01:21:48;;;;;;;15.93;3.47;;;8.80;88.00;;;;;;5066915;28;20043;-72
2020/12/24 01:24:14;;;;;;;14.13;3.50;;;8.90;88.20;;;;;;5058681;28;20429;-72
2020/12/24 01:26:47;;;;;;;13.55;3.17;;;8.80;88.10;;;;;;5065884;28;20029;-72
2020/12/24 01:29:13;;;;;;;9.60;2.80;;;8.80;88.30;;;;;;5060626;28;20036;-72
2020/12/24 01:31:46;;;;;;;13.73;3.28;;;8.80;88.20;;;;;;5065538;28;20033;-73
2020/12/24 01:34:13;;;;;;;16.15;4.07;;;8.80;88.10;;;;;;5059385;28;20063;-72
2020/12/24 01:36:39;;;;;;;17.00;4.03;;;8.80;88.30;;;;;;5063840;28;20094;-72
2020/12/24 01:39:05;;;;;;;15.13;3.85;;;8.80;88.20;;;;;;5053786;28;20029;-71
2020/12/24 01:41:30;;;;;;;17.42;3.55;;;8.80;88.30;;;;;;5064837;28;20043;-71
2020/12/24 01:43:56;;;;;;;12.18;3.78;;;8.80;88.30;;;;;;5064682;28;20028;-72
2020/12/24 01:46:22;;;;;;;18.23;3.85;;;8.80;88.40;;;;;;5058977;28;20060;-72
2020/12/24 01:48:47;;;;;;;14.15;3.05;;;8.80;88.20;;;;;;5060099;28;20024;-72
2020/12/24 01:51:24;;;;;;;17.13;2.88;;;8.80;88.40;;;;;;5062419;28;20033;-73
2020/12/24 01:54:10;;;;;;;14.02;2.70;;;8.80;88.20;;;;;;5064715;28;20037;-73
2020/12/24 01:56:36;;;;;;;13.63;3.10;;;8.80;88.20;;;;;;5059819;28;20048;-71
2020/12/24 01:59:02;;;;;;;12.93;3.13;;;8.80;88.00;;;;;;5058281;28;20491;-73
2020/12/24 02:01:27;;;;;;;13.85;3.45;;;8.80;88.00;;;;;;5061281;28;20044;-71
2020/12/24 02:03:53;;;;;;;14.85;3.55;;;8.80;88.00;;;;;;5061247;28;20070;-72
2020/12/24 02:06:19;;;;;;;12.98;2.58;;;8.80;88.00;;;;;;5064274;28;20032;-72
2020/12/24 02:08:45;;;;;;;10.10;3.13;;;8.80;88.10;;;;;;5060978;28;20037;-72
2020/12/24 02:11:11;;;;;;;11.25;3.08;;;8.80;88.10;;;;;;5052468;28;20545;-72
2020/12/24 02:13:37;;;;;;;11.55;3.15;;;8.70;88.40;;;;;;5056094;28;20037;-73
2020/12/24 02:16:02;;;;;;;14.32;2.95;;;8.70;88.40;;;;;;5062069;28;20033;-72
2020/12/24 02:18:28;;;;;;;10.10;2.80;;;8.70;88.50;;;;;;5064160;28;20029;-74
2020/12/24 02:20:54;;;;;;;15.98;3.42;;;8.60;88.60;;;;;;5065443;28;20028;-73
2020/12/24 02:23:19;;;;;;;13.93;3.10;;;8.60;88.80;;;;;;5062955;28;20495;-72
2020/12/24 02:25:45;;;;;;;15.98;3.28;;;8.50;89.00;;;;;;5059485;28;20032;-72
2020/12/24 02:28:11;;;;;;;17.13;3.95;;;8.40;89.40;;;;;;5075693;28;20434;-73
2020/12/24 02:30:37;;;;;;;12.27;3.05;;;8.30;89.50;;;;;;5056215;28;20086;-72
2020/12/24 02:33:04;;;;;;;18.83;5.05;;;8.20;89.70;;;;;;5061783;28;20041;-73
2020/12/24 02:35:29;;;;;;;16.17;4.28;;;8.20;89.80;;;;;;5059655;28;20028;-72
2020/12/24 02:37:55;;;;;;;12.68;4.30;;;8.10;90.00;;;;;;5065898;28;20037;-75
2020/12/24 02:40:21;;;;;;;14.80;3.45;;;8.10;90.10;;;;;;5063989;28;20102;-72
2020/12/24 02:42:46;;;;;;;15.52;4.10;;;8.10;90.30;;;;;;5067175;28;20536;-73
2020/12/24 02:45:12;;;;;;;14.23;4.35;;;8.00;90.40;;;;;;5049236;28;20090;-72
2020/12/24 02:47:38;;;;;;;19.27;4.22;;;8.00;90.50;;;;;;5057340;28;20090;-72
2020/12/24 02:50:08;;;;;;;17.55;4.63;;;8.00;90.60;;;;;;5062769;28;20047;-72
2020/12/24 02:52:35;;;;;;;17.27;3.75;;;7.90;90.60;;;;;;5067260;28;20098;-72
2020/12/24 02:55:04;;;;;;;17.65;3.72;;;7.90;90.60;;;;;;5061840;28;20729;-74
2020/12/24 02:57:30;;;;;;;20.17;4.10;;;7.90;90.60;;;;;;5077809;28;20055;-72
2020/12/24 02:59:55;;;;;;;13.75;3.20;;;8.00;90.60;;;;;;5060079;28;20483;-76
2020/12/24 03:02:21;;;;;;;19.55;4.40;;;8.00;90.80;;;;;;5056186;28;20424;-72
2020/12/24 03:04:47;;;;;;;16.30;4.45;;;8.00;90.90;;;;;;5066356;28;20090;-72
2020/12/24 03:07:12;;;;;;;15.65;4.20;;;8.00;90.80;;;;;;5055701;28;20037;-73
2020/12/24 03:09:38;;;;;;;16.92;4.15;;;8.10;90.80;;;;;;5060342;28;20387;-72
2020/12/24 03:12:05;;;;;;;16.70;4.25;;;8.10;90.70;;;;;;5054076;28;20034;-72
2020/12/24 03:14:31;;;;;;;17.02;4.53;;;8.10;90.90;;;;;;5061762;28;20556;-73
2020/12/24 03:16:57;;;;;;;14.10;3.95;;;8.10;90.90;;;;;;5061665;28;20045;-73
2020/12/24 03:19:22;;;;;;;16.05;4.30;;;8.10;90.80;;;;;;5056042;28;20021;-73
2020/12/24 03:21:48;;;;;;;17.35;3.70;;;8.20;90.70;;;;;;5066577;28;20032;-73
2020/12/24 03:24:13;;;;;;;18.27;5.20;;;8.20;90.70;;;;;;5069658;28;20554;-72
2020/12/24 03:26:39;;;;;;;15.43;4.13;;;8.20;90.70;;;;;;5055674;28;20489;-72
2020/12/24 03:29:05;;;;;;;13.57;3.90;;;8.20;90.70;;;;;;5067872;28;20060;-72
2020/12/24 03:31:30;;;;;;;14.98;4.22;;;8.20;90.70;;;;;;5068893;28;20040;-73
2020/12/24 03:33:56;;;;;;;16.30;3.80;;;8.20;90.70;;;;;;5062916;28;20481;-72
2020/12/24 03:36:22;;;;;;;15.35;4.60;;;8.20;90.60;;;;;;5051634;28;20053;-72
2020/12/24 03:38:48;;;;;;;14.48;4.13;;;8.20;90.60;;;;;;5062766;28;20032;-72
2020/12/24 03:41:13;;;;;;;11.63;4.00;;;8.20;90.90;;;;;;5067801;28;20047;-72
2020/12/24 03:43:39;;;;;;;14.40;3.75;;;8.10;90.90;;;;;;5064740;28;20097;-72
2020/12/24 03:46:04;;;;;;;16.50;3.92;;;8.20;90.80;;;;;;5060147;28;20029;-72
2020/12/24 03:48:30;;;;;;;16.65;4.32;;;8.10;90.80;;;;;;5063207;28;20043;-72
2020/12/24 03:50:56;;;;;;;14.50;3.60;;;8.10;90.80;;;;;;5076107;28;20070;-73
2020/12/24 03:53:22;;;;;;;17.50;4.50;;;8.10;90.90;;;;;;5063381;28;20487;-76
2020/12/24 03:55:47;;;;;;;15.63;4.28;;;8.10;90.90;;;;;;5056137;28;20131;-72
2020/12/24 03:58:13;;;;;;;18.25;4.45;;;8.10;90.90;;;;;;5064507;28;20033;-72
2020/12/24 04:00:39;;;;;;;15.35;3.80;;;8.10;90.80;;;;;;5068112;28;20051;-72
2020/12/24 04:03:06;;;;;;;17.30;4.13;;;8.10;90.80;;;;;;5062553;28;20495;-72
2020/12/24 04:05:32;;;;;;;18.27;4.15;;;8.10;90.80;;;;;;5068638;28;20028;-72
2020/12/24 04:07:57;;;;;;;14.57;3.95;;;8.10;90.80;;;;;;5062064;28;20514;-72
2020/12/24 04:10:23;;;;;;;13.65;3.78;;;8.10;90.80;;;;;;5066808;28;20037;-72
2020/12/24 04:12:49;;;;;;;12.23;3.45;;;8.10;90.90;;;;;;5070463;28;20032;-75
2020/12/24 04:15:14;;;;;;;13.27;3.88;;;8.10;90.80;;;;;;5065501;28;20044;-72
2020/12/24 04:17:40;;;;;;;15.13;3.85;;;8.10;90.90;;;;;;5067608;28;20041;-72
2020/12/24 04:20:05;;;;;;;17.60;4.32;;;8.00;91.00;;;;;;5062867;28;20029;-72
2020/12/24 04:22:31;;;;;;;11.07;3.33;;;8.10;90.90;;;;;;5067732;28;20491;-72
2020/12/24 04:24:58;;;;;;;17.83;3.72;;;8.00;91.00;;;;;;5058642;28;20149;-73
2020/12/24 04:27:24;;;;;;;13.88;3.28;;;8.00;91.20;;;;;;5061513;28;20044;-74
2020/12/24 04:29:50;;;;;;;14.02;3.78;;;8.00;91.20;;;;;;5066689;28;20045;-72
2020/12/24 04:32:15;;;;;;;14.38;3.55;;;8.10;91.20;;;;;;5063609;28;20044;-72
2020/12/24 04:34:41;;;;;;;16.52;3.40;;;8.10;91.10;;;;;;5064800;28;20043;-72
2020/12/24 04:37:07;;;;;;;13.50;3.35;;;8.10;91.10;;;;;;5063349;28;20365;-72
2020/12/24 04:39:33;;;;;;;13.32;2.95;;;8.10;91.10;;;;;;5067524;28;20395;-72
2020/12/24 04:41:59;;;;;;;15.68;3.80;;;8.10;91.10;;;;;;5067790;28;20082;-72
2020/12/24 04:44:26;;;;;;;14.55;3.45;;;8.20;91.00;;;;;;5063814;28;20021;-72
2020/12/24 04:46:57;;;;;;;14.80;3.40;;;8.20;90.90;;;;;;5065641;28;20462;-72
2020/12/24 04:49:29;;;;;;;14.77;3.25;;;8.30;90.80;;;;;;5066538;28;20082;-72
2020/12/24 04:51:54;;;;;;;12.05;3.63;;;8.30;90.80;;;;;;5065930;28;20035;-72
2020/12/24 04:54:22;;;;;;;11.15;2.67;;;8.40;90.80;;;;;;5066736;28;20048;-72
2020/12/24 04:56:48;;;;;;;11.77;3.15;;;8.30;91.00;;;;;;5070340;28;20502;-72
2020/12/24 04:59:13;;;;;;;12.90;3.03;;;8.30;91.10;;;;;;5063566;28;20036;-72
2020/12/24 05:01:40;;;;;;;11.80;3.78;;;8.30;91.20;;;;;;5062296;28;20116;-72
2020/12/24 05:04:05;;;;;;;12.07;4.03;;;8.30;91.50;;;;;;5066014;28;20037;-72
2020/12/24 05:06:31;;;;;;;18.23;5.70;;;8.20;91.50;;;;;;5059364;28;20466;-72
2020/12/24 05:08:58;;;;;;;15.18;6.18;;;8.20;91.60;;;;;;5066227;28;20025;-75
2020/12/24 05:11:25;;;;;;;12.00;6.00;;;8.20;91.70;;;;;;5055909;28;20034;-72
2020/12/24 05:13:51;;;;;;;14.48;6.40;;;8.20;91.80;;;;;;5060908;28;20036;-75
2020/12/24 05:16:17;;;;;;;13.45;3.72;;;8.20;92.00;;;;;;5060317;28;20102;-72
2020/12/24 05:18:43;;;;;;;12.85;2.95;;;7.80;91.00;;;;;;5066182;28;20580;-71
2020/12/24 05:21:09;;;;;;;13.57;2.95;;;7.60;91.50;;;;;;5066233;28;20059;-72
2020/12/24 05:23:35;;;;;;;19.55;3.95;;;7.40;91.70;;;;;;5062947;28;20024;-72
2020/12/24 05:26:17;;;;;;;13.18;2.60;;;7.30;91.60;;;;;;5062802;28;20024;-75
2020/12/24 05:28:42;;;;;;;12.80;3.03;;;7.30;91.50;;;;;;5059607;28;20087;-72
2020/12/24 05:31:08;;;;;;;19.73;4.18;;;7.20;91.40;;;;;;5058830;28;20471;-72
2020/12/24 05:33:34;;;;;;;18.60;3.47;;;7.10;91.10;;;;;;5057692;28;20459;-71
2020/12/24 05:36:19;;;;;;;19.25;4.03;;;7.10;90.70;;;;;;5067767;28;20032;-71
2020/12/24 05:38:45;;;;;;;16.23;3.50;;;7.10;91.00;;;;;;5066992;28;20040;-72
2020/12/24 05:41:31;;;;;;;11.55;2.63;;;7.00;90.20;;;;;;5061754;28;20025;-71
2020/12/24 05:44:12;;;;;;;15.00;2.97;;;6.90;89.80;;;;;;5062044;28;20059;-72
2020/12/24 05:46:40;;;;;;;15.88;2.85;;;6.80;89.70;;;;;;5060602;28;20066;-71
2020/12/24 05:49:14;;;;;;;14.82;2.95;;;6.70;89.20;;;;;;5063924;28;20074;-72
2020/12/24 05:51:40;;;;;;;14.10;3.17;;;6.70;89.20;;;;;;5067624;28;20128;-71
2020/12/24 05:54:06;;;;;;;11.30;2.50;;;6.60;88.60;;;;;;5065992;28;20131;-71
2020/12/24 05:56:36;;;;;;;17.33;3.20;;;6.60;88.60;;;;;;5059350;28;20033;-71
2020/12/24 05:59:04;;;;;;;11.57;3.13;;;6.60;88.50;;;;;;5066498;28;20025;-72
2020/12/24 06:01:38;;;;;;;13.27;2.92;;;6.60;88.30;;;;;;5067931;28;20476;-72
2020/12/24 06:04:10;;;;;;;22.70;6.25;;;6.50;88.40;;;;;;5058783;28;20021;-72
2020/12/24 06:06:49;;;;;;;12.48;2.42;;;6.40;88.20;;;;;;5074360;28;20044;-72
2020/12/24 06:09:19;;;;;;;15.05;3.78;;;6.40;88.10;;;;;;5056796;28;20048;-71
2020/12/24 06:11:53;;;;;;;12.52;2.78;;;6.40;88.20;;;;;;5067780;28;20055;-73
2020/12/24 06:14:28;;;;;;;10.70;2.00;;;6.40;87.70;;;;;;5062015;28;20115;-72
2020/12/24 06:17:05;;;;;;;10.07;2.67;;;6.30;87.20;;;;;;5066129;28;20033;-72
2020/12/24 06:19:37;;;;;;;7.90;1.90;;;6.20;85.90;;;;;;5051943;28;20033;-72
2020/12/24 06:22:02;;;;;;;6.35;1.90;;;6.10;86.20;;;;;;5055579;28;20355;-71
2020/12/24 06:24:34;;;;;;;10.88;2.10;;;6.10;86.10;;;;;;5056655;28;20058;-71
2020/12/24 06:27:07;;;;;;;17.45;2.78;;;6.10;86.10;;;;;;5062284;28;20017;-72
2020/12/24 06:29:37;;;;;;;7.95;1.70;;;6.10;85.90;;;;;;5057670;28;20021;-71
2020/12/24 06:32:07;;;;;;;10.40;1.80;;;6.10;86.10;;;;;;5058780;28;20029;-71
2020/12/24 06:34:39;;;;;;;8.52;1.77;;;6.10;85.90;;;;;;5065160;28;20352;-72
2020/12/24 06:37:12;;;;;;;8.02;2.10;;;6.10;85.80;;;;;;5066007;28;20103;-72
2020/12/24 06:39:43;;;;;;;9.52;1.80;;;6.10;85.90;;;;;;5063993;28;20552;-71
2020/12/24 06:42:41;;;;;;;16.08;2.33;;;6.10;85.60;;;;;;5062101;28;20539;-71
2020/12/24 06:45:20;;;;;;;9.55;1.73;;;6.10;85.70;;;;;;5058996;28;20063;-71
2020/12/24 06:48:25;;;;;;;11.05;2.20;;;6.10;85.00;;;;;;5056562;28;20063;-72
2020/12/24 06:51:02;;;;;;;6.88;1.55;;;6.20;85.30;;;;;;5057541;28;20422;-71
2020/12/24 06:53:35;;;;;;;6.25;1.65;;;6.10;85.40;;;;;;5059384;28;20431;-71
2020/12/24 06:56:18;;;;;;;3.30;1.30;;;6.10;85.00;;;;;;5060363;28;20086;-75
2020/12/24 06:58:43;;;;;;;6.30;1.42;;;6.00;84.50;;;;;;5067024;28;20033;-71
2020/12/24 07:01:20;;;;;;;4.60;1.10;;;6.00;84.60;;;;;;5069234;28;20474;-71
2020/12/24 07:03:46;;;;;;;5.53;1.70;;;6.00;84.60;;;;;;5059314;28;20029;-71
2020/12/24 07:06:12;;;;;;;4.13;1.27;;;6.00;84.50;;;;;;5063192;28;20132;-71
2020/12/24 07:08:41;;;;;;;5.28;1.48;;;5.90;85.00;;;;;;5066234;28;20387;-71
2020/12/24 07:11:06;;;;;;;5.38;1.48;;;5.90;84.90;;;;;;5049308;28;20025;-71
2020/12/24 07:13:43;;;;;;;3.13;1.20;;;5.90;85.10;;;;;;5050521;28;20035;-74
2020/12/24 07:16:10;;;;;;;4.32;1.63;;;5.90;84.90;;;;;;5054418;28;20415;-75
2020/12/24 07:18:38;;;;;;;7.28;1.63;;;5.90;85.20;;;;;;5065300;28;20039;-70
2020/12/24 07:21:05;;;;;;;3.90;1.50;;;5.80;85.30;;;;;;5059015;28;20040;-71
2020/12/24 07:23:32;;;;;;;6.40;1.45;;;5.90;85.10;;;;;;5066765;28;20025;-73
2020/12/24 07:26:00;;;;;;;4.28;1.40;;;5.90;85.50;;;;;;5064732;28;20029;-72
2020/12/24 07:28:32;;;;;;;8.70;1.50;;;5.90;85.10;;;;;;5062068;28;20544;-72
2020/12/24 07:31:03;;;;;;;4.50;1.30;;;5.90;85.40;;;;;;5059523;28;20032;-75
2020/12/24 07:33:29;;;;;;;4.63;1.52;;;5.80;85.30;;;;;;5053173;28;20438;-71
2020/12/24 07:35:55;;;;;;;5.15;1.60;;;5.80;85.40;;;;;;5064124;28;20033;-71
2020/12/24 07:38:22;;;;;;;8.10;1.83;;;5.80;85.60;;;;;;5065780;28;20098;-73
2020/12/24 07:40:48;;;;;;;5.00;1.52;;;5.70;85.80;;;;;;5067448;28;20089;-71
2020/12/24 07:43:14;;;;;;;2.83;1.42;;;5.70;85.70;;;;;;5067002;28;20506;-71
2020/12/24 07:45:41;;;;;;;4.70;1.58;;;5.70;85.80;;;;;;5066309;28;20068;-72
2020/12/24 07:48:16;;;;;;;5.78;1.48;;;5.70;86.00;;;;;;5063535;28;20529;-71
2020/12/24 07:50:42;;;;;;;6.68;1.60;;;5.70;85.90;;;;;;5063926;28;20052;-71
2020/12/24 07:53:15;;;;;;;4.95;1.35;;;5.70;86.00;;;;;;5064283;28;20484;-71
2020/12/24 07:55:41;;;;;;;4.97;1.40;;;5.80;85.60;;;;;;5067541;28;20136;-72
2020/12/24 07:58:09;;;;;;;7.20;2.85;;;5.80;85.50;;;;;;5058095;28;20128;-71
2020/12/24 08:00:45;;;;;;;8.95;2.00;;;5.80;85.20;;;;;;5066817;28;20026;-71
2020/12/24 08:03:14;;;;;;;5.47;1.50;;;5.90;84.70;;;;;;5067749;28;20041;-71
2020/12/24 08:05:40;;;;;;;4.53;1.30;;;6.00;84.90;;;;;;5065631;28;20036;-71
2020/12/24 08:08:06;;;;;;;5.65;1.30;;;6.10;84.00;;;;;;5067008;28;20029;-72
2020/12/24 08:10:42;;;;;;;9.75;3.40;;;6.10;84.10;;;;;;5054562;28;20486;-71
2020/12/24 08:13:09;;;;;;;4.93;1.63;;;6.10;84.00;;;;;;5067745;28;20397;-72
2020/12/24 08:15:41;;;;;;;4.97;2.05;;;6.10;83.90;;;;;;5066678;28;20036;-71
2020/12/24 08:18:09;;;;;;;4.80;1.80;;;6.20;83.90;;;;;;5072839;28;20039;-72
2020/12/24 08:21:20;;;;;;;5.68;2.13;;;6.20;83.90;;;;;;5066362;28;20120;-74
2020/12/24 08:23:48;;;;;;;6.85;2.85;;;6.20;84.00;;;;;;5044533;28;20050;-71
2020/12/24 08:26:15;;;;;;;11.32;3.38;;;6.20;84.20;;;;;;5052002;28;20067;-71
2020/12/24 08:28:48;;;;;;;11.48;4.07;;;6.20;84.80;;;;;;5056322;28;20075;-72
2020/12/24 08:31:14;;;;;;;14.40;5.15;;;6.20;85.10;;;;;;5052699;28;20032;-71
2020/12/24 08:33:40;;;;;;;8.38;2.97;;;6.10;85.50;;;;;;5066676;28;20039;-72
2020/12/24 08:36:18;;;;;;;13.00;5.00;;;6.10;85.80;;;;;;5053069;28;20040;-71
2020/12/24 08:38:44;;;;;;;8.45;3.08;;;6.10;86.40;;;;;;5058508;28;20036;-72
2020/12/24 08:41:24;;;;;;;8.32;3.33;;;6.10;86.50;;;;;;5059143;28;20605;-74
2020/12/24 08:43:55;;;;;;;8.45;2.90;;;6.10;86.50;;;;;;5061586;28;20063;-72
2020/12/24 08:46:22;;;;;;;6.22;2.33;;;6.10;86.80;;;;;;5062383;28;20032;-71
2020/12/24 08:48:48;;;;;;;6.63;2.88;;;6.10;87.00;;;;;;5061693;28;20043;-70
2020/12/24 08:51:17;;;;;;;7.85;2.45;;;6.10;86.90;;;;;;5057106;28;20048;-73
2020/12/24 08:53:43;;;;;;;6.75;2.17;;;6.10;87.00;;;;;;5049913;28;20103;-70
2020/12/24 08:56:16;;;;;;;7.40;2.28;;;6.20;87.30;;;;;;5056270;28;20056;-71
2020/12/24 08:58:53;;;;;;;7.28;2.17;;;6.20;87.50;;;;;;5054612;28;20032;-72
2020/12/24 09:01:20;;;;;;;6.13;2.30;;;6.10;87.40;;;;;;5040069;28;21864;-73
2020/12/24 09:03:46;;;;;;;6.18;2.33;;;6.20;87.60;;;;;;5056945;28;20314;-70
2020/12/24 09:06:13;;;;;;;6.97;2.13;;;6.20;87.70;;;;;;5048913;28;20551;-71
2020/12/24 09:08:41;;;;;;;6.85;2.38;;;6.20;87.60;;;;;;5059561;28;20036;-70
2020/12/24 09:11:26;;;;;;;7.75;2.13;;;6.20;87.60;;;;;;5058798;28;20713;-70
2020/12/24 09:13:59;;;;;;;6.72;2.22;;;6.30;87.60;;;;;;5046305;28;20116;-73
2020/12/24 09:16:25;;;;;;;8.50;2.05;;;6.30;87.60;;;;;;5037472;28;20110;-71
2020/12/24 09:19:20;;;;;;;6.53;1.75;;;6.40;87.20;;;;;;5035999;28;20483;-71
2020/12/24 09:21:57;;;;;;;7.60;1.70;;;6.40;87.10;;;;;;5031035;28;20052;-72
2020/12/24 09:24:24;;;;;;;9.52;2.58;;;6.40;87.20;;;;;;5057817;28;20362;-72
2020/12/24 09:26:54;;;;;;;9.30;1.60;;;6.40;87.30;;;;;;5056881;28;20029;-71
2020/12/24 09:29:21;;;;;;;4.07;1.58;;;6.40;86.70;;;;;;5046020;28;20028;-71
2020/12/24 09:31:59;;;;;;;7.50;2.15;;;6.50;87.20;;;;;;5056279;28;20017;-71
2020/12/24 09:34:25;;;;;;;11.38;2.80;;;6.40;86.50;;;;;;5034664;28;20033;-74
2020/12/24 09:36:51;;;;;;;5.22;1.88;;;6.50;86.80;;;;;;5035180;28;20033;-71
2020/12/24 09:39:18;;;;;;;5.75;1.52;;;6.50;86.20;;;;;;5045747;28;20029;-70
2020/12/24 09:41:44;;;;;;;12.38;1.85;;;6.50;86.30;;;;;;5059999;28;20070;-71
2020/12/24 09:44:11;;;;;;;6.78;1.33;;;6.60;86.30;;;;;;5052837;28;20115;-71
2020/12/24 09:46:37;;;;;;;7.38;1.48;;;6.60;85.10;;;;;;5044086;28;20103;-71
2020/12/24 09:49:04;;;;;;;7.15;1.63;;;6.60;84.60;;;;;;5050376;28;20043;-71
2020/12/24 09:51:37;;;;;;;6.10;1.58;;;6.70;84.80;;;;;;5047163;28;20032;-74
2020/12/24 09:54:04;;;;;;;5.65;1.20;;;6.70;84.80;;;;;;5057598;28;20059;-71
2020/12/24 09:56:30;;;;;;;6.43;1.90;;;6.70;84.50;;;;;;5053363;28;20033;-72
2020/12/24 09:58:56;;;;;;;6.90;1.50;;;6.70;84.50;;;;;;5056725;28;20039;-73
2020/12/24 10:01:21;;;;;;;6.03;1.50;;;6.70;84.50;;;;;;5056002;28;20391;-70
2020/12/24 10:03:47;;;;;;;6.65;1.38;;;6.70;84.60;;;;;;5052116;28;20063;-71
2020/12/24 10:06:14;;;;;;;3.85;1.50;;;6.70;84.60;;;;;;5051340;28;20429;-73
2020/12/24 10:08:39;;;;;;;7.03;1.73;;;6.70;85.10;;;;;;5062289;28;20094;-73
2020/12/24 10:11:14;;;;;;;6.68;2.05;;;6.60;84.10;;;;;;5049850;28;20033;-72
2020/12/24 10:13:40;;;;;;;7.90;1.88;;;6.60;84.80;;;;;;5056538;28;20035;-73
2020/12/24 10:16:06;;;;;;;7.38;1.80;;;6.60;83.10;;;;;;5050989;28;20083;-73
2020/12/24 10:18:32;;;;;;;5.40;1.70;;;6.60;83.50;;;;;;5056359;28;20445;-71
2020/12/24 10:20:57;;;;;;;7.03;1.95;;;6.60;83.80;;;;;;5050797;28;20052;-73
2020/12/24 10:23:23;;;;;;;8.48;2.70;;;6.60;83.50;;;;;;5053654;28;20572;-72
2020/12/24 10:25:48;;;;;;;7.55;1.75;;;6.60;83.30;;;;;;5053402;28;20079;-73
2020/12/24 10:28:14;;;;;;;7.15;2.17;;;6.70;83.50;;;;;;5040609;28;20021;-70
2020/12/24 10:30:42;;;;;;;13.27;3.50;;;6.70;83.30;;;;;;5062431;28;20021;-71
2020/12/24 10:33:07;;;;;;;7.82;2.03;;;6.80;83.60;;;;;;5057747;28;20655;-73
2020/12/24 10:35:35;;;;;;;10.32;2.00;;;6.80;83.00;;;;;;5054278;28;20419;-71
2020/12/24 10:38:04;;;;;;;9.27;2.25;;;6.90;83.20;;;;;;5055946;28;20291;-72
2020/12/24 10:40:30;;;;;;;7.50;2.38;;;6.90;83.50;;;;;;5052757;28;20556;-73
2020/12/24 10:42:57;;;;;;;6.22;2.17;;;6.90;83.20;;;;;;5054492;28;20025;-70
2020/12/24 10:45:22;;;;;;;9.45;2.13;;;6.90;83.20;;;;;;5045812;28;20054;-72
2020/12/24 10:47:48;;;;;;;7.32;1.63;;;7.00;83.50;;;;;;5051641;28;20052;-73
2020/12/24 10:50:15;;;;;;;9.05;1.58;;;6.90;83.10;;;;;;5050545;28;20017;-71
2020/12/24 10:52:40;;;;;;;11.13;2.05;;;7.00;83.40;;;;;;5054279;28;20035;-74
2020/12/24 10:55:06;;;;;;;8.40;2.40;;;7.00;83.30;;;;;;5052681;28;20531;-71
2020/12/24 10:57:32;;;;;;;7.05;2.03;;;7.00;83.20;;;;;;5054953;28;20036;-70
2020/12/24 10:59:57;;;;;;;10.32;2.53;;;7.00;83.80;;;;;;5057893;28;20058;-74
2020/12/24 11:02:24;;;;;;;8.75;2.10;;;7.10;83.10;;;;;;5052412;28;20048;-70
2020/12/24 11:04:49;;;;;;;12.25;2.80;;;7.10;82.30;;;;;;5054038;28;20689;-70
2020/12/24 11:07:15;;;;;;;12.40;4.03;;;7.10;82.40;;;;;;5052351;28;20354;-72
2020/12/24 11:09:40;;;;;;;9.82;2.33;;;7.30;82.50;;;;;;5051561;28;20048;-72
2020/12/24 11:12:06;;;;;;;8.85;1.90;;;7.40;81.40;;;;;;5055184;28;20130;-70
2020/12/24 11:14:33;;;;;;;9.50;2.10;;;7.40;81.10;;;;;;5056987;28;20112;-70
2020/12/24 11:16:59;;;;;;;10.68;2.20;;;7.40;80.00;;;;;;5051005;28;20033;-70
2020/12/24 11:19:25;;;;;;;8.23;1.63;;;7.40;80.60;;;;;;5065470;28;20033;-70
2020/12/24 11:21:52;;;;;;;8.55;1.90;;;7.40;80.80;;;;;;5051250;28;20441;-71
2020/12/24 11:24:17;;;;;;;9.10;1.85;;;7.30;81.20;;;;;;5067804;28;20082;-72
2020/12/24 11:26:43;;;;;;;8.73;2.08;;;7.30;82.10;;;;;;5063781;28;20044;-71
2020/12/24 11:29:09;;;;;;;10.73;2.80;;;7.30;82.30;;;;;;5062535;28;21408;-70
2020/12/24 11:31:36;;;;;;;12.32;2.83;;;7.30;82.30;;;;;;5060106;28;20039;-70
2020/12/24 11:34:03;;;;;;;10.30;2.00;;;7.40;82.90;;;;;;5063203;28;20028;-71
2020/12/24 11:36:29;;;;;;;8.18;1.80;;;7.50;82.70;;;;;;5052353;28;20033;-71
2020/12/24 11:38:55;;;;;;;7.00;1.98;;;7.50;82.20;;;;;;5048294;28;20044;-70
2020/12/24 11:41:23;;;;;;;8.35;2.22;;;7.50;81.10;;;;;;5054405;28;20040;-71
2020/12/24 11:43:51;;;;;;;9.57;2.00;;;7.50;80.50;;;;;;5056114;28;20455;-74
2020/12/24 11:46:17;;;;;;;10.52;2.08;;;7.50;80.90;;;;;;5048896;28;20037;-71
2020/12/24 11:48:43;;;;;;;5.93;1.95;;;7.50;80.40;;;;;;5034613;28;20037;-71
2020/12/24 11:51:10;;;;;;;10.73;2.60;;;7.50;81.40;;;;;;5040222;28;20033;-71
2020/12/24 11:53:37;;;;;;;11.25;2.38;;;7.60;81.90;;;;;;5047712;28;20103;-73
2020/12/24 11:56:04;;;;;;;13.65;2.67;;;7.60;82.10;;;;;;5056878;28;20634;-72
2020/12/24 11:58:30;;;;;;;11.35;2.90;;;7.50;82.70;;;;;;5049712;28;20067;-73
2020/12/24 12:00:55;;;;;;;8.60;2.40;;;7.50;82.50;;;;;;5050890;28;20036;-72
2020/12/24 12:03:22;;;;;;;10.02;2.45;;;7.50;82.50;;;;;;5056599;28;20049;-74
2020/12/24 12:05:48;;;;;;;12.32;3.92;;;7.40;83.00;;;;;;5049650;28;20429;-72
2020/12/24 12:08:14;;;;;;;8.60;2.33;;;7.50;83.30;;;;;;5049534;28;20475;-72
2020/12/24 12:10:39;;;;;;;15.05;2.60;;;7.50;83.30;;;;;;5039017;28;20041;-71
2020/12/24 12:13:05;;;;;;;15.45;3.50;;;7.40;82.90;;;;;;5047818;28;20024;-72
2020/12/24 12:15:31;;;;;;;10.32;2.50;;;7.40;82.80;;;;;;5056626;28;20116;-72
2020/12/24 12:17:56;;;;;;;8.68;2.40;;;7.40;81.60;;;;;;5051794;28;20040;-72
2020/12/24 12:20:22;;;;;;;12.00;3.28;;;7.40;81.00;;;;;;5054749;28;20568;-73
2020/12/24 12:22:48;;;;;;;9.48;2.42;;;7.40;81.30;;;;;;5046686;28;20499;-72
2020/12/24 12:25:15;;;;;;;13.30;3.25;;;7.40;80.80;;;;;;5043227;28;20049;-72
2020/12/24 12:27:41;;;;;;;10.35;2.33;;;7.40;80.30;;;;;;5058675;28;20029;-72
2020/12/24 12:30:07;;;;;;;11.23;2.38;;;7.30;79.80;;;;;;5059701;28;20039;-76
2020/12/24 12:32:32;;;;;;;9.60;2.80;;;7.40;79.90;;;;;;5057999;28;20769;-74
2020/12/24 12:34:58;;;;;;;8.75;2.38;;;7.60;79.20;;;;;;5045638;28;20548;-72
2020/12/24 12:37:24;;;;;;;9.05;3.03;;;7.80;79.10;;;;;;5055070;28;20040;-73
2020/12/24 12:39:51;;;;;;;11.10;2.42;;;7.90;78.60;;;;;;5048873;28;20489;-72
2020/12/24 12:42:20;;;;;;;11.15;2.13;;;8.00;79.00;;;;;;5050935;28;20498;-71
2020/12/24 12:44:45;;;;;;;6.78;1.65;;;7.80;79.70;;;;;;5051995;28;20036;-73
2020/12/24 12:47:11;;;;;;;7.43;1.90;;;6.80;83.60;;;;;;5055566;28;20487;-74
2020/12/24 12:49:36;;;;;;;8.23;1.60;;;6.40;84.30;;;;;;5054216;28;20039;-73
2020/12/24 12:52:05;;;;;;;7.75;1.63;;;6.40;85.50;;;;;;5059256;28;20020;-75
2020/12/24 12:54:30;;;;;;;5.22;1.60;;;6.40;85.60;;;;;;5061102;28;20075;-73